Time;durP1;ratioP1;P1;durP2;ratioP2;P2;SDS_P1;SDS_P2;PMS_P1;PMS_P2;Temp;Humidity;BMP_temperature;BMP_pressure;BME280_temperature;BME280_humidity;BME280_pressure;Samples;Min_cycle;Max_cycle;Signal;HPM_P1;HPM_P2
2023/06/12 00:01:39;;;;;;;;;;;22.70;53.20;;;;;;5034928;28;20391;-72
2023/06/12 00:04:05;;;;;;;;;;;22.60;53.60;;;;;;5034942;28;20289;-72
2023/06/12 00:06:31;;;;;;;;;;;22.60;53.80;;;;;;5034949;28;19941;-72
2023/06/12 00:08:57;;;;;;;;;;;22.60;54.70;;;;;;5034956;28;20372;-72
2023/06/12 00:11:22;;;;;;;;;;;22.50;53.50;;;;;;5035484;28;19948;-72
2023/06/12 00:13:48;;;;;;;;;;;22.50;54.20;;;;;;5017071;28;20396;-72
2023/06/12 00:16:13;;;;;;;;;;;22.50;54.40;;;;;;5016801;28;19947;-72
2023/06/12 00:18:39;;;;;;;;;;;22.40;53.70;;;;;;5034681;28;19999;-72
2023/06/12 00:21:08;;;;;;;;;;;22.40;54.30;;;;;;5034752;28;20327;-72
2023/06/12 00:23:34;;;;;;;;;;;22.40;54.70;;;;;;5034567;28;19909;-72
2023/06/12 00:26:00;;;;;;;;;;;22.40;54.40;;;;;;5034616;28;19911;-72
2023/06/12 00:28:25;;;;;;;;;;;22.30;54.50;;;;;;5034945;28;19995;-72
2023/06/12 00:30:51;;;;;;;;;;;22.20;54.70;;;;;;5034448;28;19912;-72
2023/06/12 00:33:16;;;;;;;;;;;22.20;55.00;;;;;;5016840;28;20364;-72
2023/06/12 00:35:42;;;;;;;;;;;22.10;55.00;;;;;;5034317;28;19905;-72
2023/06/12 00:38:08;;;;;;;;;;;22.00;55.10;;;;;;5033948;28;19909;-72
2023/06/12 00:40:33;;;;;;;;;;;22.00;55.40;;;;;;5034154;28;20287;-72
2023/06/12 00:42:59;;;;;;;;;;;22.00;54.90;;;;;;5035083;28;20396;-72
2023/06/12 00:45:24;;;;;;;;;;;22.00;55.00;;;;;;5034810;28;19905;-72
2023/06/12 00:47:56;;;;;;;;;;;22.00;55.50;;;;;;5034715;28;20254;-72
2023/06/12 00:50:25;;;;;;;;;;;21.90;54.90;;;;;;5034121;28;19905;-72
2023/06/12 00:52:51;;;;;;;;;;;21.90;55.60;;;;;;5034094;28;19971;-72
2023/06/12 00:55:17;;;;;;;;;;;21.80;55.50;;;;;;5016423;28;20335;-72
2023/06/12 00:57:43;;;;;;;;;;;21.80;56.20;;;;;;5033987;28;19916;-72
2023/06/12 01:00:11;;;;;;;;;;;21.80;55.40;;;;;;5016199;28;20389;-72
2023/06/12 01:02:39;;;;;;;;;;;21.80;56.60;;;;;;5016248;28;19905;-72
2023/06/12 01:05:08;;;;;;;;;;;21.80;56.00;;;;;;5033811;28;19959;-72
2023/06/12 01:07:43;;;;;;;;;;;21.70;55.90;;;;;;5033837;28;20418;-72
2023/06/12 01:10:30;;;;;;;;;;;21.70;55.80;;;;;;5033707;28;20423;-72
2023/06/12 01:12:57;;;;;;;;;;;21.70;56.20;;;;;;5015921;28;19958;-72
2023/06/12 01:15:22;;;;;;;;;;;21.60;56.50;;;;;;5033848;28;19912;-72
2023/06/12 01:17:47;;;;;;;;;;;21.50;56.20;;;;;;5033787;28;19909;-72
2023/06/12 01:20:13;;;;;;;;;;;21.40;56.40;;;;;;5033632;28;19923;-72
2023/06/12 01:22:45;;;;;;;;;;;21.40;57.00;;;;;;5033735;28;19905;-72
2023/06/12 01:25:37;;;;;;;;;;;21.40;57.00;;;;;;5033692;28;19905;-72
2023/06/12 01:28:28;;;;;;;;;;;21.30;57.20;;;;;;5015935;28;19912;-72
2023/06/12 01:31:08;;;;;;;;;;;21.20;57.00;;;;;;5033595;28;20398;-72
2023/06/12 01:33:38;;;;;;;;;;;21.20;57.00;;;;;;5015967;28;19931;-72
2023/06/12 01:36:05;;;;;;;;;;;21.10;57.70;;;;;;5033979;28;20035;-72
2023/06/12 01:38:32;;;;;;;;;;;21.10;57.80;;;;;;5033549;28;19931;-72
2023/06/12 01:40:59;;;;;;;;;;;21.10;58.30;;;;;;5033587;28;19911;-72
2023/06/12 01:43:25;;;;;;;;;;;21.00;58.20;;;;;;5034022;28;19905;-72
2023/06/12 01:45:50;;;;;;;;;;;20.90;58.10;;;;;;5033461;28;19959;-72
2023/06/12 01:48:16;;;;;;;;;;;20.90;58.50;;;;;;5033850;28;19971;-72
2023/06/12 01:50:42;;;;;;;;;;;20.80;58.10;;;;;;5037871;28;19905;-72
2023/06/12 01:53:09;;;;;;;;;;;20.70;58.80;;;;;;5037485;28;19905;-72
2023/06/12 01:55:36;;;;;;;;;;;20.70;58.70;;;;;;5037335;28;19905;-72
2023/06/12 01:58:01;;;;;;;;;;;20.70;59.20;;;;;;5037313;28;19959;-76
2023/06/12 02:00:27;;;;;;;;;;;20.60;58.80;;;;;;5037664;28;19905;-75
2023/06/12 02:02:56;;;;;;;;;;;20.60;59.40;;;;;;5037687;28;19970;-74
2023/06/12 02:05:22;;;;;;;;;;;20.60;59.50;;;;;;5037224;28;19905;-75
2023/06/12 02:07:47;;;;;;;;;;;20.40;59.90;;;;;;5019373;28;19905;-75
2023/06/12 02:10:13;;;;;;;;;;;20.40;59.40;;;;;;5037058;28;19905;-75
2023/06/12 02:12:38;;;;;;;;;;;20.30;59.90;;;;;;5036979;28;19912;-75
2023/06/12 02:15:04;;;;;;;;;;;20.30;60.00;;;;;;5035964;28;19948;-76
2023/06/12 02:17:31;;;;;;;;;;;20.20;60.10;;;;;;5037116;28;19955;-76
2023/06/12 02:19:57;;;;;;;;;;;20.10;60.00;;;;;;5036741;28;19991;-75
2023/06/12 02:22:22;;;;;;;;;;;20.10;60.70;;;;;;5036855;28;19905;-75
2023/06/12 02:24:48;;;;;;;;;;;19.90;60.90;;;;;;5036834;28;19909;-75
2023/06/12 02:27:14;;;;;;;;;;;20.00;60.60;;;;;;5037280;28;19913;-75
2023/06/12 02:29:39;;;;;;;;;;;19.90;60.80;;;;;;5036865;28;19948;-75
2023/06/12 02:32:05;;;;;;;;;;;19.90;60.90;;;;;;5037004;28;19955;-75
2023/06/12 02:34:30;;;;;;;;;;;19.80;61.60;;;;;;5036816;28;19905;-75
2023/06/12 02:36:56;;;;;;;;;;;19.80;61.30;;;;;;5036465;28;20003;-75
2023/06/12 02:39:21;;;;;;;;;;;19.70;61.20;;;;;;5036817;28;19905;-75
2023/06/12 02:41:47;;;;;;;;;;;19.70;61.80;;;;;;5037149;28;20395;-75
2023/06/12 02:44:13;;;;;;;;;;;19.80;61.80;;;;;;5036441;28;19905;-75
2023/06/12 02:46:58;;;;;;;;;;;19.70;62.10;;;;;;5036398;28;19913;-75
2023/06/12 02:49:28;;;;;;;;;;;19.70;62.40;;;;;;5018039;28;19959;-75
2023/06/12 02:51:53;;;;;;;;;;;19.60;62.30;;;;;;5018447;28;19905;-75
2023/06/12 02:54:21;;;;;;;;;;;19.60;62.20;;;;;;5018319;28;20299;-72
2023/06/12 02:56:46;;;;;;;;;;;19.70;62.30;;;;;;5018546;28;19923;-72
2023/06/12 02:59:16;;;;;;;;;;;19.60;62.30;;;;;;5018144;28;19995;-72
2023/06/12 03:01:43;;;;;;;;;;;19.60;62.60;;;;;;5036221;28;20386;-72
2023/06/12 03:04:10;;;;;;;;;;;19.50;62.20;;;;;;5036111;28;20364;-72
2023/06/12 03:06:35;;;;;;;;;;;19.50;62.90;;;;;;5036404;28;19905;-72
2023/06/12 03:09:03;;;;;;;;;;;19.40;63.10;;;;;;5035956;28;20257;-72
2023/06/12 03:11:29;;;;;;;;;;;19.50;63.30;;;;;;5035961;28;20356;-72
2023/06/12 03:13:54;;;;;;;;;;;19.40;63.40;;;;;;5036007;28;19987;-72
2023/06/12 03:16:20;;;;;;;;;;;19.40;63.40;;;;;;5035771;28;19913;-72
2023/06/12 03:18:46;;;;;;;;;;;19.40;63.40;;;;;;5035702;28;19940;-72
2023/06/12 03:21:11;;;;;;;;;;;19.30;63.60;;;;;;5035900;28;19955;-72
2023/06/12 03:23:37;;;;;;;;;;;19.30;63.70;;;;;;5036258;28;19912;-73
2023/06/12 03:26:02;;;;;;;;;;;19.30;63.90;;;;;;5036216;28;19905;-72
2023/06/12 03:28:28;;;;;;;;;;;19.20;64.00;;;;;;5035564;28;19912;-72
2023/06/12 03:30:53;;;;;;;;;;;19.20;64.00;;;;;;5036319;28;20382;-72
2023/06/12 03:33:19;;;;;;;;;;;19.20;63.90;;;;;;5035553;28;19913;-72
2023/06/12 03:35:45;;;;;;;;;;;19.20;64.10;;;;;;5035419;28;19911;-72
2023/06/12 03:38:10;;;;;;;;;;;19.20;64.00;;;;;;5035436;28;20372;-72
2023/06/12 03:40:36;;;;;;;;;;;19.10;63.90;;;;;;5017671;28;19912;-72
2023/06/12 03:43:02;;;;;;;;;;;19.20;64.30;;;;;;5035367;28;19905;-72
2023/06/12 03:45:28;;;;;;;;;;;19.20;64.30;;;;;;5035592;28;19913;-72
2023/06/12 03:47:53;;;;;;;;;;;19.10;64.20;;;;;;5035889;28;19909;-72
2023/06/12 03:50:19;;;;;;;;;;;19.10;63.70;;;;;;5035222;28;19995;-72
2023/06/12 03:52:45;;;;;;;;;;;19.20;64.10;;;;;;5035132;28;19941;-72
2023/06/12 03:55:12;;;;;;;;;;;19.20;64.20;;;;;;5035166;28;19928;-72
2023/06/12 03:57:37;;;;;;;;;;;19.20;64.10;;;;;;5035015;28;19948;-72
2023/06/12 04:00:03;;;;;;;;;;;19.30;64.10;;;;;;5034980;28;19912;-72
2023/06/12 04:02:29;;;;;;;;;;;19.20;63.90;;;;;;5035045;28;19905;-72
2023/06/12 04:04:55;;;;;;;;;;;19.30;63.90;;;;;;5033636;28;19911;-72
2023/06/12 04:07:21;;;;;;;;;;;19.20;63.90;;;;;;5035006;28;19990;-72
2023/06/12 04:09:46;;;;;;;;;;;19.30;63.90;;;;;;5034857;28;19905;-73
2023/06/12 04:12:12;;;;;;;;;;;19.30;63.90;;;;;;5034104;28;20031;-72
2023/06/12 04:14:38;;;;;;;;;;;19.30;63.80;;;;;;5034740;28;19909;-72
2023/06/12 04:17:03;;;;;;;;;;;19.30;63.80;;;;;;5034740;28;19971;-72
2023/06/12 04:19:29;;;;;;;;;;;19.40;63.40;;;;;;5034508;28;19913;-72
2023/06/12 04:21:54;;;;;;;;;;;19.40;63.90;;;;;;5034731;28;19951;-72
2023/06/12 04:24:21;;;;;;;;;;;19.40;63.60;;;;;;5034596;28;19947;-72
2023/06/12 04:26:49;;;;;;;;;;;19.50;63.60;;;;;;5035106;28;19940;-72
2023/06/12 04:29:15;;;;;;;;;;;19.50;63.70;;;;;;5034497;28;19905;-72
2023/06/12 04:31:41;;;;;;;;;;;19.60;64.00;;;;;;5034547;28;19912;-72
2023/06/12 04:34:07;;;;;;;;;;;19.60;63.60;;;;;;5034426;28;19905;-73
2023/06/12 04:36:37;;;;;;;;;;;19.50;64.00;;;;;;5016763;28;19916;-72
2023/06/12 04:39:11;;;;;;;;;;;19.60;64.30;;;;;;5034608;28;19905;-73
2023/06/12 04:41:37;;;;;;;;;;;19.50;64.00;;;;;;5034268;28;19909;-73
2023/06/12 04:44:03;;;;;;;;;;;19.50;64.20;;;;;;5034227;28;20035;-72
2023/06/12 04:46:29;;;;;;;;;;;19.60;64.30;;;;;;5034138;28;19905;-72
2023/06/12 04:48:55;;;;;;;;;;;19.60;64.10;;;;;;5034096;28;20272;-73
2023/06/12 04:51:20;;;;;;;;;;;19.70;64.30;;;;;;5034156;28;19905;-73
2023/06/12 04:53:47;;;;;;;;;;;19.80;63.80;;;;;;5034102;28;20344;-73
2023/06/12 04:56:20;;;;;;;;;;;19.80;63.70;;;;;;5034055;28;19909;-73
2023/06/12 04:58:46;;;;;;;;;;;19.90;63.70;;;;;;5034347;28;19913;-73
2023/06/12 05:01:12;;;;;;;;;;;19.90;64.10;;;;;;5033973;28;19944;-74
2023/06/12 05:03:40;;;;;;;;;;;20.00;64.30;;;;;;5033800;28;19905;-75
2023/06/12 05:06:06;;;;;;;;;;;20.10;64.90;;;;;;5033859;28;19909;-74
2023/06/12 05:08:32;;;;;;;;;;;20.40;64.10;;;;;;5033776;28;20372;-72
2023/06/12 05:10:58;;;;;;;;;;;20.30;64.60;;;;;;5034415;28;19991;-74
2023/06/12 05:13:23;;;;;;;;;;;20.50;64.50;;;;;;5034330;28;19909;-74
2023/06/12 05:15:48;;;;;;;;;;;20.70;64.70;;;;;;5033739;28;19912;-73
2023/06/12 05:18:14;;;;;;;;;;;20.80;63.80;;;;;;5034138;28;20011;-74
2023/06/12 05:20:40;;;;;;;;;;;20.90;63.10;;;;;;5033550;28;20011;-74
2023/06/12 05:23:05;;;;;;;;;;;21.00;63.00;;;;;;5016009;28;19999;-74
2023/06/12 05:25:31;;;;;;;;;;;21.00;61.90;;;;;;5015787;28;20004;-74
2023/06/12 05:27:56;;;;;;;;;;;21.10;62.30;;;;;;5015839;28;19909;-74
2023/06/12 05:30:22;;;;;;;;;;;21.20;62.40;;;;;;5033766;28;19905;-74
2023/06/12 05:32:47;;;;;;;;;;;21.30;62.50;;;;;;5033337;28;20335;-74
2023/06/12 05:35:13;;;;;;;;;;;21.40;63.00;;;;;;5032278;28;19905;-73
2023/06/12 05:37:38;;;;;;;;;;;21.50;62.60;;;;;;5033476;28;19915;-73
2023/06/12 05:40:05;;;;;;;;;;;21.50;62.10;;;;;;5033488;28;20307;-72
2023/06/12 05:42:31;;;;;;;;;;;21.60;61.50;;;;;;5032930;28;19906;-72
2023/06/12 05:44:57;;;;;;;;;;;21.60;61.50;;;;;;5032598;28;19975;-73
2023/06/12 05:47:22;;;;;;;;;;;21.70;61.30;;;;;;5031683;28;19991;-72
2023/06/12 05:49:48;;;;;;;;;;;21.80;61.20;;;;;;5033223;28;19951;-72
2023/06/12 05:52:14;;;;;;;;;;;21.90;60.80;;;;;;5032393;28;20372;-73
2023/06/12 05:54:39;;;;;;;;;;;22.10;60.60;;;;;;5033222;28;19905;-72
2023/06/12 05:57:05;;;;;;;;;;;22.10;59.90;;;;;;5033232;28;19915;-72
2023/06/12 05:59:30;;;;;;;;;;;22.30;60.20;;;;;;5033236;28;19905;-72
2023/06/12 06:01:56;;;;;;;;;;;22.40;60.00;;;;;;5015544;28;19905;-73
2023/06/12 06:04:22;;;;;;;;;;;22.50;60.20;;;;;;5033316;28;19959;-72
2023/06/12 06:06:48;;;;;;;;;;;22.60;59.60;;;;;;5015070;28;20004;-72
2023/06/12 06:09:15;;;;;;;;;;;22.90;59.10;;;;;;5033189;28;19915;-72
2023/06/12 06:11:40;;;;;;;;;;;23.00;59.10;;;;;;5033079;28;20345;-72
2023/06/12 06:14:06;;;;;;;;;;;23.10;58.80;;;;;;5033746;28;19905;-72
2023/06/12 06:16:31;;;;;;;;;;;23.20;58.20;;;;;;5033782;28;19909;-72
2023/06/12 06:18:57;;;;;;;;;;;23.40;58.20;;;;;;5033050;28;19920;-72
2023/06/12 06:21:22;;;;;;;;;;;23.50;58.10;;;;;;5033215;28;20284;-73
2023/06/12 06:23:48;;;;;;;;;;;23.60;57.70;;;;;;5015674;28;19905;-72
2023/06/12 06:26:13;;;;;;;;;;;23.70;57.40;;;;;;5033129;28;19913;-73
2023/06/12 06:28:39;;;;;;;;;;;23.90;56.20;;;;;;5033017;28;19905;-73
2023/06/12 06:31:06;;;;;;;;;;;23.90;56.70;;;;;;5033087;28;19905;-72
2023/06/12 06:33:32;;;;;;;;;;;24.00;57.00;;;;;;5033009;28;20269;-72
2023/06/12 06:35:57;;;;;;;;;;;24.10;57.20;;;;;;5036157;28;19909;-72
2023/06/12 06:38:24;;;;;;;;;;;24.10;56.70;;;;;;5036484;28;19912;-72
2023/06/12 06:40:50;;;;;;;;;;;24.20;56.10;;;;;;5036415;28;19931;-72
2023/06/12 06:43:16;;;;;;;;;;;24.40;56.30;;;;;;5036560;28;19905;-72
2023/06/12 06:45:41;;;;;;;;;;;24.60;55.50;;;;;;5036603;28;19905;-73
2023/06/12 06:48:07;;;;;;;;;;;24.70;55.10;;;;;;5036389;28;19939;-73
2023/06/12 06:50:32;;;;;;;;;;;24.80;54.40;;;;;;5036311;28;19905;-72
2023/06/12 06:52:58;;;;;;;;;;;25.00;54.90;;;;;;5018543;28;19912;-72
2023/06/12 06:55:23;;;;;;;;;;;25.10;54.00;;;;;;5036750;28;19909;-73
2023/06/12 06:57:50;;;;;;;;;;;25.20;53.90;;;;;;5036236;28;20443;-72
2023/06/12 07:00:16;;;;;;;;;;;25.30;54.00;;;;;;5036164;28;19905;-73
2023/06/12 07:02:43;;;;;;;;;;;25.40;54.00;;;;;;5036697;28;20349;-72
2023/06/12 07:05:08;;;;;;;;;;;25.60;53.40;;;;;;5036122;28;19955;-72
2023/06/12 07:07:34;;;;;;;;;;;25.70;53.10;;;;;;5018268;28;20311;-72
2023/06/12 07:09:59;;;;;;;;;;;25.80;53.10;;;;;;5036162;28;20356;-72
2023/06/12 07:12:25;;;;;;;;;;;25.80;53.40;;;;;;5035956;28;20280;-72
2023/06/12 07:14:50;;;;;;;;;;;26.00;53.20;;;;;;5035880;28;19905;-73
2023/06/12 07:17:16;;;;;;;;;;;26.10;53.10;;;;;;5035804;28;19942;-72
2023/06/12 07:19:41;;;;;;;;;;;26.10;53.10;;;;;;5035692;28;19913;-73
2023/06/12 07:22:07;;;;;;;;;;;26.30;52.70;;;;;;5035832;28;19935;-73
2023/06/12 07:24:32;;;;;;;;;;;26.50;52.10;;;;;;5035846;28;20249;-73
2023/06/12 07:26:58;;;;;;;;;;;26.60;51.60;;;;;;5035737;28;19970;-73
2023/06/12 07:29:23;;;;;;;;;;;26.70;51.20;;;;;;5034369;28;20450;-73
2023/06/12 07:31:49;;;;;;;;;;;26.90;50.80;;;;;;5035627;28;20353;-73
2023/06/12 07:34:16;;;;;;;;;;;26.90;50.60;;;;;;5035611;28;19996;-72
2023/06/12 07:36:42;;;;;;;;;;;27.00;50.40;;;;;;5035480;28;19913;-73
2023/06/12 07:39:07;;;;;;;;;;;27.20;50.20;;;;;;5036000;28;19970;-73
2023/06/12 07:41:33;;;;;;;;;;;27.20;50.00;;;;;;5035915;28;20250;-72
2023/06/12 07:43:58;;;;;;;;;;;27.30;49.70;;;;;;5035835;28;19991;-73
2023/06/12 07:46:24;;;;;;;;;;;27.40;49.50;;;;;;5034699;28;20321;-73
2023/06/12 07:48:49;;;;;;;;;;;27.40;49.70;;;;;;5035724;28;19905;-73
2023/06/12 07:51:16;;;;;;;;;;;27.50;49.80;;;;;;5035154;28;19905;-73
2023/06/12 07:53:41;;;;;;;;;;;27.50;50.10;;;;;;5035776;28;19905;-73
2023/06/12 07:56:07;;;;;;;;;;;27.60;50.10;;;;;;5035169;28;19905;-73
2023/06/12 07:58:37;;;;;;;;;;;27.80;48.20;;;;;;5035457;28;19920;-72
2023/06/12 08:01:04;;;;;;;;;;;27.80;48.70;;;;;;5035659;28;19958;-73
2023/06/12 08:03:30;;;;;;;;;;;27.90;48.30;;;;;;5034942;28;19905;-73
2023/06/12 08:05:55;;;;;;;;;;;27.90;48.30;;;;;;5035006;28;19928;-73
2023/06/12 08:08:22;;;;;;;;;;;28.00;48.90;;;;;;5034928;28;19905;-73
2023/06/12 08:10:47;;;;;;;;;;;28.10;47.90;;;;;;5035367;28;19999;-73
2023/06/12 08:13:13;;;;;;;;;;;28.20;47.80;;;;;;5035350;28;19955;-73
2023/06/12 08:15:38;;;;;;;;;;;28.30;48.10;;;;;;5034749;28;19956;-73
2023/06/12 08:18:04;;;;;;;;;;;28.30;48.80;;;;;;5017025;28;19913;-73
2023/06/12 08:20:30;;;;;;;;;;;28.50;48.40;;;;;;5035178;28;20360;-73
2023/06/12 08:22:59;;;;;;;;;;;28.60;47.70;;;;;;5034563;28;19944;-73
2023/06/12 08:25:25;;;;;;;;;;;28.70;46.20;;;;;;5034617;28;19909;-73
2023/06/12 08:27:51;;;;;;;;;;;28.80;47.70;;;;;;5034578;28;19909;-73
2023/06/12 08:30:16;;;;;;;;;;;28.90;46.20;;;;;;5034442;28;19905;-73
2023/06/12 08:32:42;;;;;;;;;;;29.00;46.70;;;;;;5034423;28;20364;-73
2023/06/12 08:35:08;;;;;;;;;;;29.20;44.10;;;;;;5034954;28;19905;-73
2023/06/12 08:37:33;;;;;;;;;;;29.20;44.20;;;;;;5034420;28;19998;-73
2023/06/12 08:40:02;;;;;;;;;;;29.20;43.50;;;;;;5034216;28;20379;-73
2023/06/12 08:42:27;;;;;;;;;;;29.40;44.50;;;;;;5016484;28;19912;-73
2023/06/12 08:44:58;;;;;;;;;;;29.50;44.30;;;;;;5034744;28;19987;-73
2023/06/12 08:47:24;;;;;;;;;;;29.50;44.20;;;;;;5016553;28;20443;-73
2023/06/12 08:49:50;;;;;;;;;;;29.50;44.10;;;;;;5034100;28;19948;-73
2023/06/12 08:52:17;;;;;;;;;;;29.60;44.00;;;;;;5034696;28;19932;-73
2023/06/12 08:54:43;;;;;;;;;;;29.70;43.70;;;;;;5034042;28;19971;-73
2023/06/12 08:57:09;;;;;;;;;;;29.80;44.00;;;;;;5033687;28;20363;-73
2023/06/12 08:59:34;;;;;;;;;;;29.80;43.00;;;;;;5033885;28;19940;-73
2023/06/12 09:02:01;;;;;;;;;;;29.70;42.80;;;;;;5016419;28;19905;-73
2023/06/12 09:04:45;;;;;;;;;;;29.80;42.60;;;;;;5033920;28;19905;-73
2023/06/12 09:07:11;;;;;;;;;;;29.80;42.80;;;;;;5033885;28;19982;-73
2023/06/12 09:09:37;;;;;;;;;;;29.80;43.50;;;;;;5016764;28;19959;-73
2023/06/12 09:12:04;;;;;;;;;;;29.90;43.30;;;;;;5033844;28;19905;-73
2023/06/12 09:14:32;;;;;;;;;;;30.00;43.20;;;;;;5016028;28;19912;-73
2023/06/12 09:16:58;;;;;;;;;;;30.00;42.70;;;;;;5015905;28;20292;-73
2023/06/12 09:19:24;;;;;;;;;;;30.10;42.10;;;;;;5033477;28;19960;-73
2023/06/12 09:21:49;;;;;;;;;;;30.10;42.20;;;;;;5033761;28;19912;-72
2023/06/12 09:24:15;;;;;;;;;;;30.20;41.50;;;;;;5016006;28;19905;-73
2023/06/12 09:26:44;;;;;;;;;;;30.20;41.80;;;;;;5033715;28;19905;-73
2023/06/12 09:29:10;;;;;;;;;;;30.40;42.00;;;;;;5033655;28;19912;-73
2023/06/12 09:31:35;;;;;;;;;;;30.40;41.90;;;;;;5033510;28;19905;-73
2023/06/12 09:34:02;;;;;;;;;;;30.50;41.70;;;;;;5033604;28;20268;-73
2023/06/12 09:36:28;;;;;;;;;;;30.60;41.90;;;;;;5015767;28;19912;-73
2023/06/12 09:38:53;;;;;;;;;;;30.70;41.10;;;;;;5033417;28;19905;-73
2023/06/12 09:41:24;;;;;;;;;;;30.70;41.80;;;;;;5033557;28;19927;-72
2023/06/12 09:43:59;;;;;;;;;;;30.80;41.10;;;;;;5033544;28;20365;-73
2023/06/12 09:46:28;;;;;;;;;;;30.90;41.60;;;;;;5015802;28;20368;-73
2023/06/12 09:48:59;;;;;;;;;;;30.90;40.20;;;;;;5033410;28;19912;-73
2023/06/12 09:51:26;;;;;;;;;;;31.00;40.10;;;;;;5033365;28;20309;-73
2023/06/12 09:53:54;;;;;;;;;;;31.10;39.60;;;;;;5033890;28;19959;-73
2023/06/12 09:56:20;;;;;;;;;;;31.00;39.60;;;;;;5033305;28;19911;-73
2023/06/12 09:58:47;;;;;;;;;;;31.00;39.90;;;;;;5033318;28;19908;-73
2023/06/12 10:01:15;;;;;;;;;;;31.00;40.20;;;;;;5033367;28;20000;-73
2023/06/12 10:03:42;;;;;;;;;;;31.00;39.50;;;;;;5033335;28;20004;-73
2023/06/12 10:06:08;;;;;;;;;;;31.10;40.00;;;;;;5033337;28;20035;-73
2023/06/12 10:08:34;;;;;;;;;;;31.20;39.70;;;;;;5033277;28;20436;-73
2023/06/12 10:10:59;;;;;;;;;;;31.20;39.50;;;;;;5018556;28;19947;-74
2023/06/12 10:13:25;;;;;;;;;;;31.30;40.10;;;;;;5037647;28;20344;-73
2023/06/12 10:15:51;;;;;;;;;;;31.30;39.20;;;;;;5037043;28;19912;-73
2023/06/12 10:18:17;;;;;;;;;;;31.40;38.90;;;;;;5036858;28;19909;-73
2023/06/12 10:20:43;;;;;;;;;;;31.40;38.40;;;;;;5036717;28;19939;-73
2023/06/12 10:23:09;;;;;;;;;;;31.50;39.50;;;;;;5036868;28;19905;-73
2023/06/12 10:25:35;;;;;;;;;;;31.70;39.70;;;;;;5036877;28;19905;-73
2023/06/12 10:28:01;;;;;;;;;;;31.90;38.90;;;;;;5036794;28;19905;-73
2023/06/12 10:30:26;;;;;;;;;;;32.00;38.40;;;;;;5037224;28;19905;-73
2023/06/12 10:32:52;;;;;;;;;;;32.10;38.80;;;;;;5018898;28;19975;-73
2023/06/12 10:35:30;;;;;;;;;;;32.30;38.30;;;;;;5037318;28;19996;-73
2023/06/12 10:37:55;;;;;;;;;;;32.40;38.40;;;;;;5018769;28;19916;-73
2023/06/12 10:40:22;;;;;;;;;;;32.50;36.40;;;;;;5018690;28;19992;-73
2023/06/12 10:42:53;;;;;;;;;;;32.60;37.50;;;;;;5036469;28;19905;-73
2023/06/12 10:45:19;;;;;;;;;;;32.60;38.10;;;;;;5036437;28;19905;-73
2023/06/12 10:48:10;;;;;;;;;;;32.70;36.70;;;;;;5036400;28;20422;-73
2023/06/12 10:50:37;;;;;;;;;;;32.80;36.80;;;;;;5013986;28;19909;-73
2023/06/12 10:53:04;;;;;;;;;;;33.00;36.50;;;;;;5018563;28;20288;-73
2023/06/12 10:55:31;;;;;;;;;;;33.10;36.70;;;;;;5036322;28;19904;-73
2023/06/12 10:57:59;;;;;;;;;;;33.30;36.40;;;;;;5036146;28;19909;-73
2023/06/12 11:00:35;;;;;;;;;;;33.50;36.60;;;;;;5036087;28;20427;-73
2023/06/12 11:03:01;;;;;;;;;;;33.60;36.90;;;;;;5036474;28;19988;-73
2023/06/12 11:05:27;;;;;;;;;;;33.80;36.90;;;;;;5036215;28;19952;-73
2023/06/12 11:07:54;;;;;;;;;;;33.90;36.70;;;;;;5036041;28;19943;-73
2023/06/12 11:10:19;;;;;;;;;;;34.00;37.00;;;;;;5035922;28;20479;-73
2023/06/12 11:12:45;;;;;;;;;;;34.10;36.70;;;;;;5036580;28;19939;-73
2023/06/12 11:15:11;;;;;;;;;;;34.10;35.80;;;;;;5035924;28;19908;-73
2023/06/12 11:17:36;;;;;;;;;;;34.20;36.00;;;;;;5035752;28;19909;-73
2023/06/12 11:20:02;;;;;;;;;;;34.20;35.70;;;;;;5035450;28;19912;-73
2023/06/12 11:22:27;;;;;;;;;;;34.20;36.60;;;;;;5018039;28;19904;-73
2023/06/12 11:25:00;;;;;;;;;;;34.40;37.00;;;;;;5035782;28;19927;-73
2023/06/12 11:27:26;;;;;;;;;;;34.50;36.80;;;;;;5036132;28;20380;-73
2023/06/12 11:29:52;;;;;;;;;;;34.70;36.40;;;;;;5035596;28;20391;-73
2023/06/12 11:32:17;;;;;;;;;;;34.80;37.10;;;;;;5036170;28;19909;-73
2023/06/12 11:34:43;;;;;;;;;;;35.00;37.10;;;;;;5035517;28;19912;-73
2023/06/12 11:37:16;;;;;;;;;;;35.10;36.00;;;;;;5035380;28;19916;-73
2023/06/12 11:39:41;;;;;;;;;;;35.30;35.70;;;;;;5035724;28;19905;-73
2023/06/12 11:42:08;;;;;;;;;;;35.40;33.50;;;;;;5035463;28;20421;-73
2023/06/12 11:44:33;;;;;;;;;;;35.40;34.50;;;;;;5035451;28;19905;-73
2023/06/12 11:46:59;;;;;;;;;;;35.50;34.20;;;;;;5035312;28;20380;-73
2023/06/12 11:49:25;;;;;;;;;;;35.70;35.50;;;;;;5035136;28;19909;-73
2023/06/12 11:51:51;;;;;;;;;;;35.80;34.70;;;;;;5017815;28;19967;-73
2023/06/12 11:54:16;;;;;;;;;;;35.80;35.20;;;;;;5035214;28;19905;-73
2023/06/12 11:56:42;;;;;;;;;;;35.70;34.60;;;;;;5017339;28;20002;-73
2023/06/12 11:59:07;;;;;;;;;;;35.90;34.50;;;;;;5034981;28;19955;-73
2023/06/12 12:01:36;;;;;;;;;;;35.80;34.00;;;;;;5035128;28;19904;-73
2023/06/12 12:04:04;;;;;;;;;;;35.80;34.10;;;;;;5035670;28;20333;-73
2023/06/12 12:06:29;;;;;;;;;;;35.80;33.90;;;;;;5035006;28;19951;-73
2023/06/12 12:08:55;;;;;;;;;;;35.70;33.60;;;;;;5034859;28;19908;-73
2023/06/12 12:11:21;;;;;;;;;;;35.80;33.50;;;;;;5017326;28;20280;-73
2023/06/12 12:13:58;;;;;;;;;;;35.90;33.80;;;;;;5034917;28;19995;-73
2023/06/12 12:16:24;;;;;;;;;;;36.10;34.00;;;;;;5035269;28;19913;-73
2023/06/12 12:18:50;;;;;;;;;;;36.20;33.80;;;;;;5034548;28;19912;-73
2023/06/12 12:21:16;;;;;;;;;;;36.40;32.10;;;;;;5017361;28;19905;-73
2023/06/12 12:23:41;;;;;;;;;;;36.60;32.30;;;;;;5034568;28;19905;-73
2023/06/12 12:26:10;;;;;;;;;;;36.90;33.00;;;;;;5034515;28;20407;-73
2023/06/12 12:28:35;;;;;;;;;;;37.00;33.10;;;;;;5034480;28;20003;-73
2023/06/12 12:31:02;;;;;;;;;;;37.20;32.30;;;;;;5016866;28;19956;-73
2023/06/12 12:33:28;;;;;;;;;;;37.30;32.70;;;;;;5033926;28;19936;-73
2023/06/12 12:35:53;;;;;;;;;;;37.70;32.90;;;;;;5034473;28;19904;-73
2023/06/12 12:38:18;;;;;;;;;;;37.80;31.60;;;;;;5034307;28;19955;-73
2023/06/12 12:40:44;;;;;;;;;;;37.70;31.30;;;;;;5034270;28;19909;-73
2023/06/12 12:43:10;;;;;;;;;;;37.80;31.80;;;;;;5034300;28;20073;-73
2023/06/12 12:45:35;;;;;;;;;;;37.90;31.40;;;;;;5033085;28;19909;-73
2023/06/12 12:48:02;;;;;;;;;;;37.90;31.30;;;;;;5034224;28;19905;-73
2023/06/12 12:50:28;;;;;;;;;;;37.90;30.60;;;;;;5034151;28;19911;-73
2023/06/12 12:52:54;;;;;;;;;;;38.10;30.60;;;;;;5034042;28;20003;-73
2023/06/12 12:55:19;;;;;;;;;;;38.20;31.50;;;;;;5034159;28;19905;-73
2023/06/12 12:57:45;;;;;;;;;;;38.30;30.60;;;;;;5034023;28;20403;-73
2023/06/12 13:00:12;;;;;;;;;;;38.40;30.50;;;;;;5034013;28;20000;-73
2023/06/12 13:02:38;;;;;;;;;;;38.30;30.70;;;;;;5034467;28;20388;-73
2023/06/12 13:05:04;;;;;;;;;;;38.40;31.60;;;;;;5033747;28;19905;-73
2023/06/12 13:07:30;;;;;;;;;;;38.60;31.50;;;;;;5034475;28;19905;-73
2023/06/12 13:09:57;;;;;;;;;;;38.80;31.20;;;;;;5033840;28;19905;-73
2023/06/12 13:12:22;;;;;;;;;;;38.80;30.80;;;;;;5033857;28;19905;-73
2023/06/12 13:14:48;;;;;;;;;;;38.80;30.30;;;;;;5033822;28;19912;-73
2023/06/12 13:17:16;;;;;;;;;;;38.90;30.50;;;;;;5033658;28;20085;-73
2023/06/12 13:19:41;;;;;;;;;;;38.90;30.00;;;;;;5033975;28;19956;-73
2023/06/12 13:22:07;;;;;;;;;;;38.90;30.20;;;;;;5034343;28;19940;-73
2023/06/12 13:24:32;;;;;;;;;;;38.80;30.30;;;;;;5016001;28;20429;-73
2023/06/12 13:26:58;;;;;;;;;;;38.70;31.10;;;;;;5033633;28;19927;-73
2023/06/12 13:29:23;;;;;;;;;;;38.40;30.10;;;;;;5015938;28;19909;-73
2023/06/12 13:31:49;;;;;;;;;;;38.40;29.70;;;;;;5034256;28;20253;-73
2023/06/12 13:34:14;;;;;;;;;;;38.60;30.60;;;;;;5015964;28;19913;-73
2023/06/12 13:36:40;;;;;;;;;;;38.90;30.90;;;;;;5033575;28;20330;-73
2023/06/12 13:39:06;;;;;;;;;;;39.30;30.40;;;;;;5033545;28;19912;-73
2023/06/12 13:41:32;;;;;;;;;;;39.20;30.90;;;;;;5034145;28;20003;-73
2023/06/12 13:43:57;;;;;;;;;;;39.20;30.60;;;;;;5033520;28;20284;-73
2023/06/12 13:46:23;;;;;;;;;;;39.10;31.20;;;;;;5019764;28;19923;-73
2023/06/12 13:48:51;;;;;;;;;;;39.10;30.30;;;;;;5037682;28;19920;-73
2023/06/12 13:51:17;;;;;;;;;;;39.10;30.60;;;;;;5037501;28;19913;-73
2023/06/12 13:53:43;;;;;;;;;;;39.00;30.80;;;;;;5037412;28;19905;-73
2023/06/12 13:56:08;;;;;;;;;;;39.20;31.30;;;;;;5037501;28;19912;-73
2023/06/12 13:58:34;;;;;;;;;;;39.40;31.20;;;;;;5037334;28;19919;-74
2023/06/12 14:00:59;;;;;;;;;;;39.70;32.10;;;;;;5037391;28;19905;-73
2023/06/12 14:03:26;;;;;;;;;;;39.90;31.20;;;;;;5037300;28;19913;-73
2023/06/12 14:05:51;;;;;;;;;;;39.60;31.00;;;;;;5037308;28;20350;-73
2023/06/12 14:08:17;;;;;;;;;;;39.70;31.00;;;;;;5037240;28;19995;-74
2023/06/12 14:10:43;;;;;;;;;;;39.70;31.00;;;;;;5019458;28;19931;-73
2023/06/12 14:13:08;;;;;;;;;;;39.10;31.80;;;;;;5037684;28;19905;-74